Time;durP1;ratioP1;P1;durP2;ratioP2;P2;SDS_P1;SDS_P2;PMS_P1;PMS_P2;Temp;Humidity;BMP_temperature;BMP_pressure;BME280_temperature;BME280_humidity;BME280_pressure;Samples;Min_cycle;Max_cycle;Signal;HPM_P1;HPM_P2
2023/03/11 00:02:28;;;;;;;3.27;1.20;;;3.50;99.90;;;;;;4998997;28;20163;-70
2023/03/11 00:08:47;;;;;;;3.60;1.30;;;3.50;99.90;;;;;;4982813;28;20209;-64
2023/03/11 00:11:14;;;;;;;3.87;1.30;;;3.60;99.90;;;;;;4998195;28;20243;-69
2023/03/11 00:13:42;;;;;;;6.87;1.33;;;3.60;99.90;;;;;;4998796;28;20253;-67
2023/03/11 00:16:08;;;;;;;3.57;1.10;;;3.60;99.90;;;;;;4998237;28;20262;-63
2023/03/11 00:18:34;;;;;;;2.37;1.00;;;3.60;99.90;;;;;;4998685;28;20215;-64
2023/03/11 00:21:02;;;;;;;4.60;1.10;;;3.60;99.90;;;;;;4998039;28;20172;-67
2023/03/11 00:23:34;;;;;;;4.30;1.43;;;3.60;99.90;;;;;;4998487;28;20196;-66
2023/03/11 00:26:02;;;;;;;3.97;1.27;;;3.70;99.90;;;;;;4998050;28;20282;-64
2023/03/11 00:28:28;;;;;;;4.90;1.20;;;3.70;99.90;;;;;;4998509;28;20175;-67
2023/03/11 00:30:55;;;;;;;3.47;1.17;;;3.70;99.90;;;;;;4998656;28;20175;-67
2023/03/11 00:33:22;;;;;;;4.33;1.30;;;3.70;99.90;;;;;;4998850;28;20176;-65
2023/03/11 00:35:49;;;;;;;4.33;1.10;;;3.70;99.90;;;;;;4994532;28;20176;-66
2023/03/11 00:38:16;;;;;;;1.77;0.97;;;3.80;99.90;;;;;;4994735;28;20208;-66
2023/03/11 00:40:43;;;;;;;3.43;1.43;;;3.70;99.90;;;;;;4994764;28;20180;-65
2023/03/11 00:43:08;;;;;;;2.07;1.17;;;3.70;99.90;;;;;;4994644;28;20207;-62
2023/03/11 00:45:34;;;;;;;3.03;1.20;;;3.80;99.90;;;;;;4994739;28;20200;-66
2023/03/11 00:48:00;;;;;;;2.87;1.20;;;3.70;99.90;;;;;;4994772;28;20175;-66
2023/03/11 00:50:31;;;;;;;5.67;1.17;;;3.70;99.90;;;;;;4994596;28;20204;-67
2023/03/11 00:52:56;;;;;;;2.60;1.07;;;3.70;99.90;;;;;;4979182;28;20203;-65
2023/03/11 00:55:26;;;;;;;3.33;1.10;;;3.80;99.90;;;;;;4994698;28;20267;-68
2023/03/11 00:57:59;;;;;;;1.77;0.83;;;3.80;99.90;;;;;;4994090;28;20255;-67
2023/03/11 01:00:27;;;;;;;3.13;1.07;;;3.80;99.90;;;;;;4994786;28;20215;-66
2023/03/11 01:02:56;;;;;;;6.90;1.20;;;3.70;99.90;;;;;;4994505;28;20180;-65
2023/03/11 01:05:27;;;;;;;3.87;1.40;;;3.80;99.90;;;;;;4994292;28;20231;-66
2023/03/11 01:07:52;;;;;;;2.90;1.20;;;3.80;99.90;;;;;;4994080;28;20187;-64
2023/03/11 01:10:18;;;;;;;10.70;1.60;;;3.80;99.90;;;;;;4994783;28;20180;-61
2023/03/11 01:12:44;;;;;;;3.30;1.10;;;3.70;99.90;;;;;;4994648;28;20235;-64
2023/03/11 01:15:18;;;;;;;2.70;1.10;;;3.70;99.90;;;;;;4978659;28;20176;-61
2023/03/11 01:17:43;;;;;;;3.33;0.90;;;3.70;99.90;;;;;;4993889;28;20231;-65
2023/03/11 01:20:10;;;;;;;5.00;1.10;;;3.60;99.90;;;;;;4994033;28;20227;-65
2023/03/11 01:22:38;;;;;;;2.20;0.83;;;3.60;99.90;;;;;;4994621;28;20176;-65
2023/03/11 01:25:08;;;;;;;3.97;0.90;;;3.60;99.90;;;;;;4994144;28;20196;-65
2023/03/11 01:27:34;;;;;;;3.00;0.93;;;3.60;99.90;;;;;;4994183;28;20259;-66
2023/03/11 01:30:00;;;;;;;3.70;1.03;;;3.60;99.90;;;;;;4994508;28;20219;-65
2023/03/11 01:32:25;;;;;;;2.67;1.10;;;3.60;99.90;;;;;;4994005;28;20211;-63
2023/03/11 01:34:58;;;;;;;3.27;1.00;;;3.60;99.90;;;;;;4993827;28;20302;-65
2023/03/11 01:37:24;;;;;;;2.70;0.90;;;3.60;99.90;;;;;;4994104;28;20179;-66
2023/03/11 01:39:49;;;;;;;1.43;0.80;;;3.60;99.90;;;;;;4993894;28;20203;-66
2023/03/11 01:42:17;;;;;;;1.67;0.77;;;3.60;99.90;;;;;;4993657;28;20270;-64
2023/03/11 01:44:45;;;;;;;1.93;0.80;;;3.60;99.90;;;;;;4994209;28;20169;-61
2023/03/11 01:47:11;;;;;;;1.77;0.73;;;3.60;99.90;;;;;;4993937;28;20248;-65
2023/03/11 01:49:40;;;;;;;2.23;1.00;;;3.60;99.90;;;;;;4993968;28;20217;-65
2023/03/11 01:52:07;;;;;;;3.70;1.17;;;3.60;99.90;;;;;;4993992;28;20285;-65
2023/03/11 01:54:38;;;;;;;2.77;1.03;;;3.60;99.90;;;;;;4994302;28;20195;-65
2023/03/11 01:57:11;;;;;;;2.90;0.80;;;3.60;99.90;;;;;;4993863;28;20350;-65
2023/03/11 01:59:40;;;;;;;4.83;1.10;;;3.60;99.90;;;;;;4993263;28;20286;-65
2023/03/11 02:02:18;;;;;;;3.50;1.00;;;3.60;99.90;;;;;;4992954;28;20199;-65
2023/03/11 02:04:46;;;;;;;3.30;0.90;;;3.70;99.90;;;;;;4992981;28;20207;-66
2023/03/11 02:07:13;;;;;;;2.00;0.83;;;3.70;99.90;;;;;;4993819;28;20180;-66
2023/03/11 02:09:39;;;;;;;1.20;0.83;;;3.60;99.90;;;;;;4993341;28;20180;-63
2023/03/11 02:12:10;;;;;;;1.77;1.00;;;3.70;99.90;;;;;;4993058;28;20299;-59
2023/03/11 02:14:40;;;;;;;2.87;0.90;;;3.70;99.90;;;;;;4993824;28;20192;-65
2023/03/11 02:17:06;;;;;;;4.40;0.97;;;3.70;99.90;;;;;;4993761;28;20183;-64
2023/03/11 02:19:44;;;;;;;1.30;0.70;;;3.60;99.90;;;;;;4993096;28;20219;-68
2023/03/11 02:22:15;;;;;;;1.97;1.00;;;3.60;99.90;;;;;;4993616;28;20180;-64
2023/03/11 02:25:01;;;;;;;2.17;0.90;;;3.60;99.90;;;;;;4992819;28;20204;-66
2023/03/11 02:27:30;;;;;;;2.93;0.80;;;3.70;99.90;;;;;;4993369;28;20199;-66
2023/03/11 02:29:57;;;;;;;3.13;0.93;;;3.60;99.90;;;;;;4993097;28;20260;-65
2023/03/11 02:32:23;;;;;;;4.20;1.00;;;3.60;99.90;;;;;;4993047;28;20184;-65
2023/03/11 02:34:49;;;;;;;2.40;1.00;;;3.60;99.90;;;;;;4992883;28;20187;-67
2023/03/11 02:37:16;;;;;;;3.17;1.10;;;3.70;99.90;;;;;;4992902;28;20218;-67
2023/03/11 02:39:46;;;;;;;3.87;0.83;;;3.60;99.90;;;;;;4993409;28;20227;-65
2023/03/11 02:42:18;;;;;;;3.27;1.00;;;3.60;99.90;;;;;;4992512;28;20196;-67
2023/03/11 02:44:51;;;;;;;2.60;1.00;;;3.60;99.90;;;;;;4993018;28;20176;-67
2023/03/11 02:47:17;;;;;;;3.20;1.23;;;3.60;99.90;;;;;;4993170;28;20196;-66
2023/03/11 02:49:43;;;;;;;5.43;1.00;;;3.60;99.90;;;;;;4992299;28;20199;-67
2023/03/11 02:52:11;;;;;;;1.83;0.90;;;3.50;99.90;;;;;;4992984;28;20192;-64
2023/03/11 02:54:37;;;;;;;5.87;1.57;;;3.50;99.90;;;;;;4992360;28;20183;-67
2023/03/11 02:57:03;;;;;;;4.43;1.10;;;3.60;99.90;;;;;;4992144;28;20203;-58
2023/03/11 02:59:29;;;;;;;1.60;0.80;;;3.50;99.90;;;;;;4991676;28;20191;-66
2023/03/11 03:01:57;;;;;;;2.00;0.70;;;3.50;99.90;;;;;;4992455;28;20168;-63
2023/03/11 03:04:25;;;;;;;2.40;1.00;;;3.50;99.90;;;;;;4992301;28;20255;-64
2023/03/11 03:06:51;;;;;;;2.30;0.83;;;3.50;99.90;;;;;;4992094;28;20349;-67
2023/03/11 03:09:16;;;;;;;2.47;1.10;;;3.50;99.90;;;;;;4992262;28;20245;-66
2023/03/11 03:11:42;;;;;;;2.30;0.80;;;3.50;99.90;;;;;;4992628;28;20176;-66
2023/03/11 03:14:12;;;;;;;1.83;0.83;;;3.50;99.90;;;;;;4992253;28;20176;-62
2023/03/11 03:16:38;;;;;;;2.27;0.83;;;3.50;99.90;;;;;;4991897;28;20176;-66
2023/03/11 03:19:06;;;;;;;1.87;0.90;;;3.50;99.90;;;;;;4992024;28;20199;-67
2023/03/11 03:21:31;;;;;;;2.63;0.73;;;3.40;99.90;;;;;;4992613;28;20175;-67
2023/03/11 03:24:02;;;;;;;2.23;0.80;;;3.50;99.90;;;;;;4992138;28;20180;-61
2023/03/11 03:26:27;;;;;;;1.43;0.90;;;3.40;99.90;;;;;;4992676;28;20176;-66
2023/03/11 03:28:55;;;;;;;3.60;1.10;;;3.40;99.90;;;;;;4992002;28;20226;-67
2023/03/11 03:31:23;;;;;;;4.50;1.00;;;3.40;99.90;;;;;;4992347;28;20337;-67
2023/03/11 03:33:51;;;;;;;2.87;0.83;;;3.40;99.90;;;;;;4991937;28;20187;-66
2023/03/11 03:36:16;;;;;;;2.37;0.80;;;3.30;99.90;;;;;;4992181;28;20184;-66
2023/03/11 03:38:45;;;;;;;4.10;0.60;;;3.30;99.90;;;;;;4991897;28;20200;-66
2023/03/11 03:41:14;;;;;;;1.60;0.70;;;3.30;99.90;;;;;;4991959;28;20176;-64
2023/03/11 03:43:43;;;;;;;2.20;0.83;;;3.30;99.90;;;;;;4992486;28;20183;-65
2023/03/11 03:46:08;;;;;;;2.37;0.90;;;3.30;99.90;;;;;;4991958;28;20180;-66
2023/03/11 03:48:34;;;;;;;3.00;0.90;;;3.30;99.90;;;;;;4991950;28;20186;-66
2023/03/11 03:51:05;;;;;;;1.77;0.90;;;3.20;99.90;;;;;;4991980;28;20248;-67
2023/03/11 03:53:33;;;;;;;1.97;0.80;;;3.10;99.90;;;;;;4992088;28;20187;-65
2023/03/11 03:56:10;;;;;;;1.53;0.70;;;3.10;99.90;;;;;;4991679;28;20187;-66
2023/03/11 03:58:37;;;;;;;2.60;1.23;;;3.10;99.90;;;;;;4992382;28;20172;-68
2023/03/11 04:01:04;;;;;;;2.53;0.80;;;3.10;99.90;;;;;;4991832;28;20180;-67
2023/03/11 04:03:31;;;;;;;1.87;0.87;;;3.00;99.90;;;;;;4991883;28;20237;-65
2023/03/11 04:06:08;;;;;;;1.93;0.70;;;3.00;99.90;;;;;;4991995;28;20176;-67
2023/03/11 04:08:34;;;;;;;1.23;0.70;;;2.90;99.90;;;;;;4991940;28;20198;-66
2023/03/11 04:11:02;;;;;;;0.60;0.50;;;2.90;99.90;;;;;;4994164;28;20180;-60
2023/03/11 04:13:28;;;;;;;3.30;0.70;;;2.90;99.90;;;;;;4995881;28;20207;-66
2023/03/11 04:15:55;;;;;;;1.73;0.70;;;2.80;99.90;;;;;;4995516;28;20207;-66
2023/03/11 04:18:24;;;;;;;4.43;0.80;;;2.80;99.90;;;;;;4996205;28;20168;-67
2023/03/11 04:20:52;;;;;;;0.90;0.57;;;2.80;99.90;;;;;;4995424;28;20195;-66
2023/03/11 04:23:17;;;;;;;1.90;0.80;;;2.80;99.90;;;;;;4995180;28;20208;-66
2023/03/11 04:25:45;;;;;;;2.00;0.83;;;2.70;99.90;;;;;;4995252;28;20254;-62
2023/03/11 04:28:15;;;;;;;1.00;0.67;;;2.70;99.90;;;;;;4995336;28;20235;-67
2023/03/11 04:30:43;;;;;;;2.37;0.80;;;2.60;99.90;;;;;;4995221;28;20215;-67
2023/03/11 04:33:09;;;;;;;1.03;0.67;;;2.60;99.90;;;;;;4994966;28;20180;-66
2023/03/11 04:35:37;;;;;;;1.07;0.70;;;2.60;99.90;;;;;;4979327;28;20210;-61
2023/03/11 04:38:03;;;;;;;2.20;0.70;;;2.50;99.90;;;;;;4994655;28;20176;-67
2023/03/11 04:40:31;;;;;;;1.77;0.70;;;2.50;99.90;;;;;;4994537;28;20207;-67
2023/03/11 04:42:56;;;;;;;2.67;0.80;;;2.50;99.90;;;;;;4995352;28;20191;-67
2023/03/11 04:45:24;;;;;;;2.50;0.70;;;2.50;99.90;;;;;;4994735;28;20203;-65
2023/03/11 04:47:50;;;;;;;2.30;0.80;;;2.70;99.90;;;;;;4994894;28;20242;-65
2023/03/11 04:50:19;;;;;;;2.53;0.80;;;2.40;99.90;;;;;;4995137;28;20175;-66
2023/03/11 04:52:45;;;;;;;1.57;0.97;;;2.40;99.90;;;;;;4994686;28;20259;-66
2023/03/11 04:55:13;;;;;;;2.63;0.90;;;2.50;99.90;;;;;;4995024;28;20223;-66
2023/03/11 04:57:44;;;;;;;2.10;0.80;;;2.40;99.90;;;;;;4995247;28;20184;-65
2023/03/11 05:00:15;;;;;;;1.83;0.90;;;2.40;99.90;;;;;;4994520;28;20271;-65
2023/03/11 05:02:46;;;;;;;1.47;1.00;;;2.40;99.90;;;;;;4994514;28;20272;-65
2023/03/11 05:05:11;;;;;;;2.33;0.90;;;2.40;99.90;;;;;;4994542;28;20259;-67
2023/03/11 05:07:37;;;;;;;1.97;0.80;;;2.40;99.90;;;;;;4994023;28;20270;-64
2023/03/11 05:10:04;;;;;;;1.27;0.73;;;2.40;99.90;;;;;;4994284;28;20259;-65
2023/03/11 05:12:32;;;;;;;1.17;0.70;;;2.40;99.90;;;;;;4993955;28;20199;-67
2023/03/11 05:15:00;;;;;;;2.20;1.00;;;2.40;99.90;;;;;;4978763;28;20216;-67
2023/03/11 05:17:30;;;;;;;2.00;1.20;;;2.40;99.90;;;;;;4994836;28;20195;-66
2023/03/11 05:19:58;;;;;;;2.80;0.90;;;2.40;99.90;;;;;;4993983;28;20235;-67
2023/03/11 05:22:24;;;;;;;2.03;1.00;;;2.40;99.90;;;;;;4993709;28;20242;-66
2023/03/11 05:24:49;;;;;;;2.70;1.00;;;2.30;99.90;;;;;;4994872;28;20223;-65
2023/03/11 05:27:19;;;;;;;2.27;1.10;;;2.30;99.90;;;;;;4993978;28;20184;-65
2023/03/11 05:29:47;;;;;;;3.50;1.10;;;2.30;99.90;;;;;;4993777;28;20181;-66
2023/03/11 05:32:13;;;;;;;2.00;1.00;;;2.30;99.90;;;;;;4994036;28;20180;-66
2023/03/11 05:34:41;;;;;;;2.33;0.90;;;2.30;99.90;;;;;;4994386;28;20208;-66
2023/03/11 05:37:07;;;;;;;1.93;1.33;;;2.20;99.90;;;;;;4994593;28;20176;-66
2023/03/11 05:39:33;;;;;;;1.63;0.93;;;2.20;99.90;;;;;;4994137;28;20204;-67
2023/03/11 05:41:59;;;;;;;1.63;0.93;;;2.20;99.90;;;;;;4994147;28;20231;-67
2023/03/11 05:44:29;;;;;;;1.63;0.83;;;2.20;99.90;;;;;;4993874;28;20172;-66
2023/03/11 05:46:57;;;;;;;1.70;0.90;;;2.20;99.90;;;;;;4993547;28;20172;-67
2023/03/11 05:49:23;;;;;;;1.87;1.00;;;2.20;99.90;;;;;;4993466;28;20170;-65
2023/03/11 05:51:49;;;;;;;1.73;0.97;;;2.20;99.90;;;;;;4993941;28;20259;-66
2023/03/11 05:54:16;;;;;;;1.50;0.90;;;2.30;99.90;;;;;;4994095;28;20279;-66
2023/03/11 05:56:45;;;;;;;3.20;1.20;;;2.30;99.90;;;;;;4993592;28;20180;-67
2023/03/11 05:59:13;;;;;;;1.90;1.20;;;2.20;99.90;;;;;;4993527;28;20299;-60
2023/03/11 06:01:42;;;;;;;3.80;1.40;;;2.30;99.90;;;;;;4993412;28;20199;-67
2023/03/11 06:04:09;;;;;;;3.67;1.30;;;2.30;99.90;;;;;;4993952;28;20298;-66
2023/03/11 06:06:37;;;;;;;2.47;1.00;;;2.40;99.90;;;;;;4993385;28;20172;-66
2023/03/11 06:09:03;;;;;;;3.30;1.20;;;2.20;99.90;;;;;;4993933;28;20172;-67
2023/03/11 06:11:29;;;;;;;2.87;1.30;;;2.30;99.90;;;;;;4993356;28;20199;-62
2023/03/11 06:13:56;;;;;;;2.20;1.07;;;2.30;99.90;;;;;;4993234;28;20236;-66
2023/03/11 06:16:23;;;;;;;2.50;0.90;;;2.30;99.90;;;;;;4993585;28;20187;-67
2023/03/11 06:18:49;;;;;;;1.67;1.13;;;2.30;99.90;;;;;;4993217;28;20306;-67
2023/03/11 06:21:26;;;;;;;2.57;1.13;;;2.30;99.90;;;;;;4992742;28;20210;-65
2023/03/11 06:23:51;;;;;;;2.00;1.00;;;2.30;99.90;;;;;;4993161;28;20199;-67
2023/03/11 06:26:21;;;;;;;1.83;0.83;;;2.30;99.90;;;;;;4993032;28;20207;-67
2023/03/11 06:28:48;;;;;;;3.43;1.13;;;2.40;99.90;;;;;;4992959;28;20180;-67
2023/03/11 06:31:25;;;;;;;3.53;1.20;;;2.40;99.90;;;;;;4993107;28;20262;-67
2023/03/11 06:33:54;;;;;;;3.90;1.10;;;2.40;99.90;;;;;;4992757;28;20199;-67
2023/03/11 06:36:21;;;;;;;3.33;1.13;;;2.40;99.90;;;;;;4992885;28;20192;-67
2023/03/11 06:38:51;;;;;;;1.70;1.00;;;2.50;99.90;;;;;;4992780;28;20234;-67
2023/03/11 06:41:17;;;;;;;3.60;1.30;;;2.50;99.90;;;;;;4992746;28;20176;-63
2023/03/11 06:43:47;;;;;;;2.63;1.10;;;2.50;99.90;;;;;;4992304;28;20222;-67
2023/03/11 06:46:19;;;;;;;1.73;1.03;;;2.60;99.90;;;;;;4992358;28;20211;-65
2023/03/11 06:48:50;;;;;;;3.77;1.27;;;2.60;99.90;;;;;;4993029;28;20169;-69
2023/03/11 06:51:16;;;;;;;4.10;1.10;;;2.70;99.90;;;;;;4992869;28;20182;-69
2023/03/11 06:53:42;;;;;;;2.77;1.20;;;2.70;99.90;;;;;;4992896;28;20200;-67
2023/03/11 06:56:11;;;;;;;9.03;1.67;;;2.80;99.90;;;;;;4993248;28;20180;-71
2023/03/11 06:58:38;;;;;;;2.90;1.53;;;2.90;99.90;;;;;;4992153;28;20290;-60
2023/03/11 07:01:14;;;;;;;2.57;1.50;;;3.00;99.90;;;;;;4992292;28;20183;-66
2023/03/11 07:03:43;;;;;;;7.23;1.47;;;3.00;99.90;;;;;;4992819;28;20234;-66
2023/03/11 07:06:14;;;;;;;2.73;1.27;;;3.10;99.90;;;;;;4992305;28;20180;-67
2023/03/11 07:08:42;;;;;;;5.47;1.57;;;3.10;99.90;;;;;;4992343;28;20203;-67
2023/03/11 07:11:17;;;;;;;4.37;1.40;;;3.10;99.90;;;;;;4992154;28;20176;-67
2023/03/11 07:13:43;;;;;;;6.70;1.83;;;3.30;99.90;;;;;;4992248;28;20175;-66
2023/03/11 07:16:14;;;;;;;3.50;1.50;;;3.30;99.90;;;;;;4992150;28;20184;-68
2023/03/11 07:18:40;;;;;;;3.37;1.53;;;3.30;99.90;;;;;;4992261;28;20210;-67
2023/03/11 07:21:07;;;;;;;4.73;1.80;;;3.40;99.90;;;;;;4992159;28;20183;-67
2023/03/11 07:23:34;;;;;;;3.37;1.43;;;3.40;99.90;;;;;;4992895;28;20258;-67
2023/03/11 07:26:03;;;;;;;3.87;1.47;;;3.40;99.90;;;;;;4991804;28;20206;-67
2023/03/11 07:28:29;;;;;;;2.03;1.40;;;3.40;99.90;;;;;;4992508;28;20262;-67
2023/03/11 07:30:58;;;;;;;4.10;1.60;;;3.50;99.90;;;;;;4991997;28;20211;-66
2023/03/11 07:33:24;;;;;;;4.23;1.30;;;3.50;99.90;;;;;;4992816;28;20184;-64
2023/03/11 07:35:55;;;;;;;6.50;1.83;;;3.60;99.90;;;;;;4991983;28;20190;-67
2023/03/11 07:38:20;;;;;;;2.70;1.63;;;3.60;99.90;;;;;;4991904;28;20215;-63
2023/03/11 07:40:46;;;;;;;3.63;1.43;;;3.60;99.90;;;;;;4992495;28;20205;-67
2023/03/11 07:43:14;;;;;;;3.33;1.50;;;3.60;99.90;;;;;;4992092;28;20179;-67
2023/03/11 07:45:40;;;;;;;3.63;1.40;;;3.60;99.90;;;;;;4995201;28;20180;-67
2023/03/11 07:48:05;;;;;;;4.30;1.40;;;3.60;99.90;;;;;;4995969;28;20227;-66
2023/03/11 07:50:31;;;;;;;3.20;1.30;;;3.60;99.90;;;;;;4995708;28;20176;-67
2023/03/11 07:52:57;;;;;;;4.37;2.00;;;3.60;99.90;;;;;;4995681;28;20196;-67
2023/03/11 07:55:22;;;;;;;2.60;1.80;;;3.60;99.90;;;;;;4995437;28;20182;-67
2023/03/11 07:57:50;;;;;;;3.63;1.57;;;3.70;99.90;;;;;;4979988;28;20204;-66
2023/03/11 08:00:18;;;;;;;5.20;1.40;;;3.70;99.90;;;;;;4995412;28;20275;-67
2023/03/11 08:02:46;;;;;;;3.37;1.50;;;3.70;99.90;;;;;;4996280;28;20176;-68
2023/03/11 08:05:12;;;;;;;3.13;1.40;;;3.80;99.90;;;;;;4995389;28;20368;-67
2023/03/11 08:07:40;;;;;;;5.50;1.90;;;3.80;99.90;;;;;;4995547;28;20316;-69
2023/03/11 08:10:08;;;;;;;4.97;2.03;;;3.80;99.90;;;;;;4995502;28;20176;-66
2023/03/11 08:12:34;;;;;;;4.43;1.90;;;3.80;99.90;;;;;;4995448;28;20196;-66
2023/03/11 08:15:02;;;;;;;3.43;1.70;;;3.80;99.90;;;;;;4995475;28;20175;-66
2023/03/11 08:17:30;;;;;;;3.77;1.80;;;3.80;99.90;;;;;;4995849;28;20176;-66
2023/03/11 08:19:55;;;;;;;4.27;1.83;;;3.80;99.90;;;;;;4995224;28;20259;-66
2023/03/11 08:22:21;;;;;;;4.13;1.70;;;3.90;99.90;;;;;;4995252;28;20239;-67
2023/03/11 08:24:53;;;;;;;4.73;1.73;;;3.90;99.90;;;;;;4995185;28;20212;-67
2023/03/11 08:27:19;;;;;;;8.40;2.20;;;3.90;99.90;;;;;;4995706;28;20187;-67
2023/03/11 08:29:45;;;;;;;2.20;1.60;;;3.90;99.90;;;;;;4994953;28;20180;-66
2023/03/11 08:32:10;;;;;;;4.53;1.70;;;4.00;99.90;;;;;;4995223;28;20235;-67
2023/03/11 08:34:38;;;;;;;3.00;1.60;;;4.00;99.90;;;;;;4995187;28;20282;-66
2023/03/11 08:37:04;;;;;;;2.60;1.10;;;4.00;99.90;;;;;;4994741;28;20184;-61
2023/03/11 08:39:30;;;;;;;4.47;1.40;;;4.00;99.90;;;;;;4994695;28;20222;-66
2023/03/11 08:41:58;;;;;;;2.53;1.50;;;4.10;99.90;;;;;;4995372;28;20259;-66
2023/03/11 08:44:24;;;;;;;4.03;1.60;;;4.10;99.90;;;;;;4995261;28;20199;-66
2023/03/11 08:46:56;;;;;;;2.40;1.33;;;4.10;99.90;;;;;;4994666;28;20183;-65
2023/03/11 08:49:23;;;;;;;4.23;1.63;;;4.20;99.90;;;;;;4995125;28;20322;-63
2023/03/11 08:51:51;;;;;;;7.40;1.83;;;4.20;99.90;;;;;;4994818;28;20274;-64
2023/03/11 08:54:19;;;;;;;3.20;1.87;;;4.20;99.90;;;;;;4995147;28;20271;-66
2023/03/11 08:56:46;;;;;;;3.10;1.67;;;4.30;99.90;;;;;;4993348;28;20187;-66
2023/03/11 08:59:14;;;;;;;4.83;1.80;;;4.30;99.90;;;;;;4994389;28;20211;-66
2023/03/11 09:01:42;;;;;;;4.87;1.70;;;4.50;99.90;;;;;;4995017;28;20207;-67
2023/03/11 09:04:08;;;;;;;4.73;1.50;;;4.40;99.90;;;;;;4994510;28;20175;-68
2023/03/11 09:06:33;;;;;;;4.10;1.90;;;4.50;99.90;;;;;;4994118;28;20282;-69
2023/03/11 09:08:59;;;;;;;3.47;1.63;;;4.60;99.90;;;;;;4994986;28;20184;-67
2023/03/11 09:11:25;;;;;;;3.47;1.60;;;4.60;99.90;;;;;;4994160;28;20279;-66
2023/03/11 09:13:51;;;;;;;3.87;1.53;;;4.70;99.90;;;;;;4994312;28;20184;-66
2023/03/11 09:16:23;;;;;;;5.03;1.90;;;4.90;99.90;;;;;;4994443;28;20291;-66
2023/03/11 09:18:51;;;;;;;5.63;1.90;;;4.90;99.90;;;;;;4993907;28;20390;-68
2023/03/11 09:21:19;;;;;;;4.00;1.40;;;5.00;99.90;;;;;;4993933;28;20173;-66
2023/03/11 09:23:50;;;;;;;2.87;1.40;;;5.20;99.90;;;;;;4994905;28;20206;-67
2023/03/11 09:26:16;;;;;;;7.63;1.90;;;5.30;99.90;;;;;;4994372;28;20203;-68
2023/03/11 09:28:42;;;;;;;1.97;1.57;;;5.50;99.90;;;;;;4993735;28;20180;-68
2023/03/11 09:31:10;;;;;;;4.87;2.10;;;5.70;99.90;;;;;;4993889;28;20176;-64
2023/03/11 09:33:38;;;;;;;4.10;1.80;;;5.80;99.90;;;;;;4993776;28;20204;-66
2023/03/11 09:36:05;;;;;;;3.30;1.70;;;5.80;99.90;;;;;;4993959;28;20176;-68
2023/03/11 09:38:30;;;;;;;3.10;1.60;;;5.80;99.90;;;;;;4993662;28;20186;-65
2023/03/11 09:41:42;;;;;;;4.13;1.63;;;5.80;99.90;;;;;;4993713;28;20291;-69
2023/03/11 09:44:32;;;;;;;3.30;1.83;;;5.80;99.90;;;;;;4984509;28;20188;-66
2023/03/11 09:47:00;;;;;;;4.27;1.63;;;5.80;99.90;;;;;;4993262;28;20206;-66
2023/03/11 09:49:38;;;;;;;3.43;1.40;;;5.80;99.90;;;;;;4994208;28;20199;-66
2023/03/11 09:52:08;;;;;;;4.03;2.10;;;5.80;99.90;;;;;;4993257;28;20196;-67
2023/03/11 09:54:41;;;;;;;4.27;1.60;;;6.10;99.90;;;;;;4993809;28;20203;-67
2023/03/11 09:57:19;;;;;;;4.30;2.10;;;6.50;99.90;;;;;;4994020;28;20180;-66
2023/03/11 09:59:48;;;;;;;4.03;1.70;;;7.00;99.90;;;;;;4993004;28;20239;-59
2023/03/11 10:02:20;;;;;;;3.40;1.50;;;7.40;99.90;;;;;;4993369;28;20186;-67
2023/03/11 10:04:48;;;;;;;2.87;1.20;;;7.70;99.90;;;;;;4993579;28;20180;-67
2023/03/11 10:07:22;;;;;;;1.80;0.87;;;7.90;99.90;;;;;;4993364;28;20196;-65
2023/03/11 10:09:56;;;;;;;1.13;0.90;;;7.80;99.90;;;;;;4993381;28;20184;-67
2023/03/11 10:12:53;;;;;;;2.37;0.97;;;7.60;99.90;;;;;;4993869;28;20197;-66
2023/03/11 10:15:38;;;;;;;1.83;0.83;;;7.40;99.90;;;;;;4993715;28;20187;-66
2023/03/11 10:18:41;;;;;;;2.10;0.90;;;7.20;99.90;;;;;;4993429;28;20188;-66
2023/03/11 10:21:27;;;;;;;2.47;0.90;;;7.40;99.90;;;;;;4993100;28;20184;-65
2023/03/11 10:23:59;;;;;;;3.13;1.00;;;7.70;99.90;;;;;;4993648;28;20191;-66
2023/03/11 10:26:35;;;;;;;1.83;1.10;;;7.80;99.90;;;;;;4993142;28;20180;-66
2023/03/11 10:29:01;;;;;;;4.10;1.03;;;7.70;99.90;;;;;;4993875;28;20172;-66
2023/03/11 10:31:33;;;;;;;1.67;0.97;;;7.80;99.90;;;;;;4992596;28;20237;-67
2023/03/11 10:34:20;;;;;;;1.70;0.90;;;8.10;99.90;;;;;;4993146;28;20204;-68
2023/03/11 10:36:46;;;;;;;3.30;1.00;;;8.50;99.90;;;;;;4993584;28;20183;-65
2023/03/11 10:39:14;;;;;;;1.73;0.80;;;8.90;99.90;;;;;;4992888;28;20204;-65
2023/03/11 10:42:15;;;;;;;1.40;0.90;;;9.50;99.90;;;;;;4992540;28;20187;-66
2023/03/11 10:44:43;;;;;;;2.90;0.97;;;10.00;99.90;;;;;;4992748;28;20246;-60
2023/03/11 10:47:17;;;;;;;2.67;0.90;;;10.30;99.90;;;;;;4992686;28;20244;-67
2023/03/11 10:49:43;;;;;;;3.00;1.00;;;10.40;99.90;;;;;;4993031;28;20184;-65
2023/03/11 10:52:09;;;;;;;1.50;0.85;;;10.40;99.90;;;;;;4992542;28;20278;-67
2023/03/11 10:54:44;;;;;;;3.43;1.20;;;10.20;99.90;;;;;;4992105;28;20207;-67
2023/03/11 10:57:33;;;;;;;1.30;0.97;;;10.00;99.90;;;;;;4992921;28;20203;-66
2023/03/11 11:00:08;;;;;;;2.93;1.13;;;9.70;99.90;;;;;;4992911;28;20231;-67
2023/03/11 11:02:50;;;;;;;1.90;1.03;;;9.40;99.90;;;;;;4992492;28;20195;-65
2023/03/11 11:05:21;;;;;;;2.53;1.00;;;9.10;99.90;;;;;;4992693;28;20176;-67
2023/03/11 11:07:51;;;;;;;2.63;0.87;;;8.80;99.90;;;;;;4992185;28;20202;-66
2023/03/11 11:10:24;;;;;;;2.20;1.23;;;8.60;99.90;;;;;;4992723;28;20191;-65
2023/03/11 11:12:55;;;;;;;1.50;1.10;;;8.30;99.90;;;;;;4992459;28;20176;-68
2023/03/11 11:15:34;;;;;;;1.10;0.87;;;8.10;99.90;;;;;;4976336;28;20250;-67
2023/03/11 11:18:04;;;;;;;1.17;0.90;;;8.00;99.90;;;;;;4992107;28;20190;-67
2023/03/11 11:20:31;;;;;;;2.87;0.97;;;7.90;99.90;;;;;;4992163;28;20200;-59
2023/03/11 11:23:00;;;;;;;1.87;0.80;;;7.80;99.90;;;;;;4991728;28;20172;-63
2023/03/11 11:25:38;;;;;;;1.30;0.90;;;7.70;99.90;;;;;;4992406;28;20179;-64
2023/03/11 11:28:16;;;;;;;1.93;0.90;;;7.70;99.90;;;;;;4991831;28;20231;-67
2023/03/11 11:31:03;;;;;;;1.20;0.80;;;7.60;99.90;;;;;;4992116;28;20175;-67
2023/03/11 11:33:29;;;;;;;1.87;0.90;;;7.60;99.90;;;;;;4991729;28;20183;-66
2023/03/11 11:35:58;;;;;;;1.97;0.97;;;7.70;99.90;;;;;;4992029;28;20231;-67
2023/03/11 11:38:27;;;;;;;1.40;0.90;;;7.80;99.90;;;;;;4991946;28;20187;-67
2023/03/11 11:40:58;;;;;;;2.93;0.90;;;7.90;99.90;;;;;;4992297;28;20207;-67
2023/03/11 11:43:31;;;;;;;1.20;0.80;;;8.10;99.90;;;;;;4992865;28;20171;-66
2023/03/11 11:46:04;;;;;;;2.27;1.00;;;8.30;99.90;;;;;;4992173;28;20175;-67
2023/03/11 11:48:46;;;;;;;1.80;1.33;;;8.40;99.90;;;;;;4992192;28;20227;-67
2023/03/11 11:51:46;;;;;;;2.90;1.10;;;8.60;99.90;;;;;;4991568;28;20172;-68
2023/03/11 11:54:23;;;;;;;1.30;1.00;;;8.60;99.90;;;;;;4991744;28;20180;-65
2023/03/11 11:56:49;;;;;;;0.97;0.80;;;8.60;99.90;;;;;;4991730;28;20206;-63
2023/03/11 11:59:20;;;;;;;1.90;1.00;;;8.50;99.90;;;;;;4991508;28;20196;-67
2023/03/11 12:01:49;;;;;;;2.67;0.80;;;8.40;99.90;;;;;;4992227;28;20168;-66
2023/03/11 12:04:27;;;;;;;2.20;0.80;;;8.40;99.90;;;;;;4992281;28;20222;-69
2023/03/11 12:07:17;;;;;;;2.40;1.00;;;8.40;99.90;;;;;;4992274;28;20195;-69
2023/03/11 12:09:48;;;;;;;2.83;1.00;;;8.40;99.90;;;;;;4992064;28;20204;-67
2023/03/11 12:12:38;;;;;;;2.77;1.13;;;8.40;99.90;;;;;;4991966;28;20183;-68
2023/03/11 12:15:20;;;;;;;2.30;0.90;;;8.40;99.90;;;;;;4992395;28;20184;-67
2023/03/11 12:17:51;;;;;;;3.10;1.20;;;8.50;99.90;;;;;;4992281;28;20220;-69
2023/03/11 12:20:16;;;;;;;1.77;0.90;;;8.50;99.90;;;;;;4992133;28;20274;-68
2023/03/11 12:23:03;;;;;;;1.83;1.10;;;8.40;99.90;;;;;;4992076;28;20204;-63
2023/03/11 12:25:51;;;;;;;1.60;0.93;;;8.40;99.90;;;;;;4992435;28;20171;-69
2023/03/11 12:28:26;;;;;;;2.23;1.53;;;8.60;99.90;;;;;;4992263;28;20191;-67
2023/03/11 12:30:59;;;;;;;2.93;1.17;;;8.70;99.90;;;;;;4992263;28;20190;-67
2023/03/11 12:33:42;;;;;;;1.67;0.90;;;8.70;99.90;;;;;;4994753;28;20194;-68
2023/03/11 12:36:29;;;;;;;2.30;1.07;;;9.00;99.90;;;;;;4994870;28;20239;-68
2023/03/11 12:38:56;;;;;;;3.17;1.10;;;9.20;99.90;;;;;;4995159;28;20176;-69
2023/03/11 12:41:38;;;;;;;1.27;0.97;;;9.40;99.90;;;;;;4995345;28;20180;-66
2023/03/11 12:44:30;;;;;;;3.33;0.90;;;9.50;99.90;;;;;;4995418;28;20168;-68
2023/03/11 12:46:58;;;;;;;2.23;1.03;;;9.40;99.90;;;;;;4994594;28;20175;-65
2023/03/11 12:49:35;;;;;;;2.10;0.98;;;9.40;99.90;;;;;;4994108;28;20267;-68
2023/03/11 12:52:03;;;;;;;1.63;1.10;;;9.40;99.90;;;;;;4994882;28;20202;-67
2023/03/11 12:54:29;;;;;;;2.50;1.00;;;9.30;99.90;;;;;;4994375;28;20175;-67
2023/03/11 12:57:15;;;;;;;1.43;0.90;;;9.30;99.90;;;;;;4995215;28;20199;-64
2023/03/11 12:59:59;;;;;;;1.13;0.73;;;9.30;99.90;;;;;;4974238;28;20208;-67
2023/03/11 13:02:31;;;;;;;1.73;0.90;;;9.30;99.90;;;;;;4994711;28;20199;-66
2023/03/11 13:05:36;;;;;;;1.75;0.95;;;9.30;99.90;;;;;;4994715;28;20235;-65
2023/03/11 13:08:18;;;;;;;2.27;1.03;;;9.20;99.90;;;;;;4994327;28;20172;-67
2023/03/11 13:10:46;;;;;;;2.27;0.97;;;9.20;99.90;;;;;;4995034;28;20186;-66
2023/03/11 13:13:30;;;;;;;2.73;0.97;;;9.30;99.90;;;;;;4994505;28;20172;-65
2023/03/11 13:15:57;;;;;;;1.83;1.10;;;9.30;99.90;;;;;;4994054;28;20270;-65
2023/03/11 13:18:24;;;;;;;2.33;1.00;;;9.40;99.90;;;;;;4993947;28;20187;-66